VLG33BP LFPO-LEBL
Flight info
| Callsign | VLG33BP |
|---|---|
| Flight time | 1h 24m |
| Altitude | 35000 |
| Route | ERIXU DCT ETAMO DCT VALKU DCT ATSUP DCT MINSO DCT DEGOL DCT PPG DCT ALBER |
| Aircraft | A321/M-SDE3FGHIRWY/LB1 |
Departure
| Time | 2026-05-04 16:51 |
|---|---|
| Airport | Paris-Orly Airport (LFPO) |
Arrival
| Time | 2026-05-04 18:16 |
|---|---|
| Airport | Josep Tarradellas Barcelona-El Prat Airport (LEBL) |
| Time | Latitude | Longitude | Altitude | Speed | Heading |
|---|---|---|---|---|---|
| 2026-05-04 16:18 | 48.73072 | 2.35897 | 295 ft | 0 kts | 134° |
| 2026-05-04 16:41 | 48.73116 | 2.35852 | 301 ft | 4 kts | 171° |
| 2026-05-04 16:42 | 48.73147 | 2.35864 | 301 ft | 0 kts | 237° |
| 2026-05-04 16:46 | 48.73130 | 2.35823 | 303 ft | 7 kts | 237° |
| 2026-05-04 16:47 | 48.73065 | 2.35672 | 300 ft | 11 kts | 237° |
| 2026-05-04 16:47 | 48.72904 | 2.35537 | 299 ft | 16 kts | 164° |
| 2026-05-04 16:48 | 48.72540 | 2.35690 | 300 ft | 14 kts | 163° |
| 2026-05-04 16:48 | 48.72477 | 2.35700 | 299 ft | 14 kts | 200° |
| 2026-05-04 16:49 | 48.72300 | 2.35630 | 299 ft | 16 kts | 195° |
| 2026-05-04 16:49 | 48.72072 | 2.35679 | 302 ft | 19 kts | 140° |
| 2026-05-04 16:50 | 48.71943 | 2.35907 | 300 ft | 5 kts | 93° |
| 2026-05-04 16:50 | 48.71964 | 2.35985 | 300 ft | 1 kts | 75° |
| 2026-05-04 16:51 | 48.72204 | 2.37269 | 301 ft | 123 kts | 75° |
| 2026-05-04 16:51 | 48.72477 | 2.38735 | 304 ft | 164 kts | 73° |
| 2026-05-04 16:51 | 48.73113 | 2.42108 | 1375 ft | 167 kts | 74° |
| 2026-05-04 16:52 | 48.73719 | 2.45456 | 2689 ft | 161 kts | 75° |
| 2026-05-04 16:52 | 48.74011 | 2.47076 | 3278 ft | 159 kts | 75° |
| 2026-05-04 16:53 | 48.74199 | 2.50740 | 3858 ft | 195 kts | 86° |
| 2026-05-04 16:53 | 48.74004 | 2.57846 | 4821 ft | 260 kts | 119° |
| 2026-05-04 16:54 | 48.72697 | 2.59753 | 5554 ft | 269 kts | 151° |
| 2026-05-04 16:55 | 48.65200 | 2.61555 | 8797 ft | 282 kts | 195° |
| 2026-05-04 16:55 | 48.61820 | 2.58521 | 10219 ft | 294 kts | 227° |
| 2026-05-04 16:56 | 48.59055 | 2.53618 | 10623 ft | 335 kts | 230° |
| 2026-05-04 16:56 | 48.54453 | 2.45236 | 12342 ft | 352 kts | 229° |
| 2026-05-04 16:57 | 48.52825 | 2.42452 | 12814 ft | 355 kts | 223° |
| 2026-05-04 16:57 | 48.48770 | 2.38243 | 12925 ft | 355 kts | 210° |
| 2026-05-04 16:58 | 48.42404 | 2.32661 | 12922 ft | 355 kts | 210° |
| 2026-05-04 16:58 | 48.40278 | 2.30785 | 12925 ft | 352 kts | 210° |
| 2026-05-04 16:59 | 48.36086 | 2.27094 | 12945 ft | 349 kts | 210° |
| 2026-05-04 17:00 | 48.27058 | 2.21712 | 15321 ft | 359 kts | 181° |
| 2026-05-04 17:00 | 48.19561 | 2.23267 | 17017 ft | 366 kts | 172° |
| 2026-05-04 17:01 | 48.14513 | 2.24485 | 18198 ft | 370 kts | 172° |
| 2026-05-04 17:01 | 48.09393 | 2.25711 | 19215 ft | 374 kts | 173° |
| 2026-05-04 17:02 | 48.04197 | 2.26236 | 20249 ft | 376 kts | 179° |
| 2026-05-04 17:02 | 47.98936 | 2.26573 | 21259 ft | 380 kts | 179° |
| 2026-05-04 17:03 | 47.96294 | 2.26737 | 21786 ft | 381 kts | 179° |
| 2026-05-04 17:03 | 47.93636 | 2.26902 | 22274 ft | 383 kts | 179° |
| 2026-05-04 17:03 | 47.88279 | 2.27247 | 23325 ft | 387 kts | 179° |
| 2026-05-04 17:04 | 47.82871 | 2.27596 | 24133 ft | 391 kts | 179° |
| 2026-05-04 17:04 | 47.77414 | 2.27939 | 24868 ft | 394 kts | 179° |
| 2026-05-04 17:05 | 47.71927 | 2.28283 | 25638 ft | 396 kts | 179° |
| 2026-05-04 17:05 | 47.66399 | 2.28635 | 26363 ft | 399 kts | 179° |
| 2026-05-04 17:06 | 47.60869 | 2.28992 | 27065 ft | 402 kts | 179° |
| 2026-05-04 17:06 | 47.58071 | 2.29170 | 27431 ft | 404 kts | 180° |
| 2026-05-04 17:07 | 47.52433 | 2.29523 | 28147 ft | 407 kts | 180° |
| 2026-05-04 17:07 | 47.50549 | 2.29639 | 28380 ft | 408 kts | 180° |
| 2026-05-04 17:07 | 47.46747 | 2.29873 | 28873 ft | 411 kts | 180° |
| 2026-05-04 17:07 | 47.43887 | 2.30052 | 29315 ft | 410 kts | 180° |
| 2026-05-04 17:08 | 47.41037 | 2.30229 | 29832 ft | 408 kts | 180° |
| 2026-05-04 17:08 | 47.35381 | 2.30581 | 30709 ft | 404 kts | 180° |
| 2026-05-04 17:08 | 47.32583 | 2.30757 | 31157 ft | 402 kts | 180° |
| 2026-05-04 17:09 | 47.29785 | 2.30933 | 31612 ft | 400 kts | 180° |
| 2026-05-04 17:09 | 47.27006 | 2.31110 | 32067 ft | 398 kts | 180° |
| 2026-05-04 17:09 | 47.24246 | 2.31282 | 32523 ft | 396 kts | 180° |
| 2026-05-04 17:10 | 47.18761 | 2.31619 | 33422 ft | 392 kts | 180° |
| 2026-05-04 17:10 | 47.10618 | 2.32114 | 34493 ft | 390 kts | 181° |
| 2026-05-04 17:11 | 47.07948 | 2.32274 | 34736 ft | 391 kts | 180° |
| 2026-05-04 17:11 | 47.05218 | 2.32439 | 34880 ft | 393 kts | 180° |
| 2026-05-04 17:11 | 46.99665 | 2.32780 | 34914 ft | 405 kts | 180° |
| 2026-05-04 17:12 | 46.96841 | 2.32957 | 34915 ft | 407 kts | 180° |
| 2026-05-04 17:13 | 46.82731 | 2.34583 | 34910 ft | 413 kts | 166° |
| 2026-05-04 17:14 | 46.71959 | 2.40739 | 34913 ft | 416 kts | 163° |
| 2026-05-04 17:15 | 46.63879 | 2.45395 | 34895 ft | 416 kts | 163° |
| 2026-05-04 17:16 | 46.53104 | 2.51580 | 34897 ft | 416 kts | 163° |
| 2026-05-04 17:17 | 46.42314 | 2.57751 | 34904 ft | 417 kts | 163° |
| 2026-05-04 17:18 | 46.31537 | 2.63889 | 34899 ft | 417 kts | 163° |
| 2026-05-04 17:19 | 46.20718 | 2.70021 | 34907 ft | 418 kts | 162° |
| 2026-05-04 17:20 | 46.09877 | 2.76153 | 34906 ft | 418 kts | 162° |
| 2026-05-04 17:20 | 46.01730 | 2.80729 | 34893 ft | 420 kts | 163° |
| 2026-05-04 17:21 | 45.90771 | 2.86629 | 34902 ft | 421 kts | 165° |
| 2026-05-04 17:22 | 45.85258 | 2.89485 | 34907 ft | 421 kts | 164° |
| 2026-05-04 17:23 | 45.74185 | 2.94840 | 34926 ft | 416 kts | 175° |
| 2026-05-04 17:24 | 45.65604 | 2.95026 | 34922 ft | 411 kts | 184° |
| 2026-05-04 17:25 | 45.54143 | 2.94731 | 34938 ft | 412 kts | 184° |
| 2026-05-04 17:26 | 45.42691 | 2.94436 | 34945 ft | 411 kts | 184° |
| 2026-05-04 17:27 | 45.28411 | 2.94057 | 34946 ft | 410 kts | 184° |
| 2026-05-04 17:28 | 45.17972 | 2.93778 | 34956 ft | 409 kts | 184° |
| 2026-05-04 17:29 | 45.00924 | 2.93343 | 34958 ft | 408 kts | 185° |
| 2026-05-04 17:31 | 44.86787 | 2.92974 | 34959 ft | 407 kts | 185° |
| 2026-05-04 17:32 | 44.72680 | 2.92061 | 34963 ft | 406 kts | 187° |
| 2026-05-04 17:33 | 44.61400 | 2.91192 | 34962 ft | 406 kts | 186° |
| 2026-05-04 17:34 | 44.50117 | 2.90391 | 34959 ft | 406 kts | 186° |
| 2026-05-04 17:35 | 44.36035 | 2.89361 | 34963 ft | 405 kts | 186° |
| 2026-05-04 17:36 | 44.30404 | 2.88965 | 34969 ft | 405 kts | 186° |
| 2026-05-04 17:36 | 44.24784 | 2.88561 | 34963 ft | 404 kts | 187° |
| 2026-05-04 17:37 | 44.19160 | 2.88150 | 34964 ft | 404 kts | 187° |
| 2026-05-04 17:37 | 44.13545 | 2.87739 | 34959 ft | 404 kts | 187° |
| 2026-05-04 17:38 | 44.07930 | 2.87334 | 34960 ft | 404 kts | 187° |
| 2026-05-04 17:38 | 44.02311 | 2.86942 | 34957 ft | 404 kts | 186° |
| 2026-05-04 17:39 | 43.93878 | 2.86344 | 34945 ft | 404 kts | 186° |
| 2026-05-04 17:39 | 43.88254 | 2.85947 | 34950 ft | 405 kts | 186° |
| 2026-05-04 17:40 | 43.82631 | 2.85547 | 34953 ft | 405 kts | 186° |
| 2026-05-04 17:40 | 43.77013 | 2.85171 | 34942 ft | 405 kts | 185° |
| 2026-05-04 17:41 | 43.71355 | 2.85167 | 34947 ft | 407 kts | 182° |
| 2026-05-04 17:41 | 43.65694 | 2.85364 | 34952 ft | 408 kts | 182° |
| 2026-05-04 17:42 | 43.60034 | 2.85522 | 34957 ft | 407 kts | 183° |
| 2026-05-04 17:42 | 43.54396 | 2.85599 | 34937 ft | 408 kts | 184° |
| 2026-05-04 17:43 | 43.48730 | 2.85659 | 34948 ft | 408 kts | 184° |
| 2026-05-04 17:43 | 43.43045 | 2.85731 | 34955 ft | 408 kts | 183° |
| 2026-05-04 17:44 | 43.37352 | 2.85815 | 34938 ft | 409 kts | 184° |
| 2026-05-04 17:44 | 43.31671 | 2.85902 | 34952 ft | 408 kts | 184° |
| 2026-05-04 17:45 | 43.25983 | 2.85978 | 34937 ft | 408 kts | 184° |
| 2026-05-04 17:45 | 43.20297 | 2.86054 | 34938 ft | 408 kts | 184° |
| 2026-05-04 17:46 | 43.14612 | 2.86139 | 34927 ft | 409 kts | 184° |
| 2026-05-04 17:46 | 43.08934 | 2.86223 | 34931 ft | 409 kts | 184° |
| 2026-05-04 17:47 | 43.03241 | 2.86296 | 34936 ft | 409 kts | 184° |
| 2026-05-04 17:47 | 42.97553 | 2.86381 | 34907 ft | 410 kts | 184° |
| 2026-05-04 17:48 | 42.94670 | 2.86420 | 34181 ft | 418 kts | 184° |
| 2026-05-04 17:48 | 42.91752 | 2.86459 | 33347 ft | 422 kts | 184° |
| 2026-05-04 17:48 | 42.89815 | 2.86488 | 33027 ft | 418 kts | 184° |
| 2026-05-04 17:48 | 42.85953 | 2.86550 | 32382 ft | 411 kts | 183° |
| 2026-05-04 17:49 | 42.83107 | 2.86595 | 31890 ft | 407 kts | 183° |
| 2026-05-04 17:49 | 42.80292 | 2.86639 | 31410 ft | 403 kts | 182° |
| 2026-05-04 17:49 | 42.77502 | 2.86685 | 30930 ft | 400 kts | 182° |
| 2026-05-04 17:49 | 42.74733 | 2.86679 | 30410 ft | 396 kts | 186° |
| 2026-05-04 17:50 | 42.72005 | 2.86365 | 29881 ft | 393 kts | 187° |
| 2026-05-04 17:50 | 42.69291 | 2.86041 | 29321 ft | 390 kts | 187° |
| 2026-05-04 17:50 | 42.66602 | 2.85721 | 28809 ft | 386 kts | 187° |
| 2026-05-04 17:50 | 42.63960 | 2.85409 | 28309 ft | 383 kts | 187° |
| 2026-05-04 17:51 | 42.61326 | 2.85101 | 27811 ft | 379 kts | 187° |
| 2026-05-04 17:51 | 42.58703 | 2.84796 | 27328 ft | 376 kts | 187° |
| 2026-05-04 17:51 | 42.56106 | 2.84494 | 26844 ft | 373 kts | 187° |
| 2026-05-04 17:51 | 42.53525 | 2.84192 | 26295 ft | 373 kts | 187° |
| 2026-05-04 17:52 | 42.50943 | 2.83889 | 25830 ft | 370 kts | 187° |
| 2026-05-04 17:52 | 42.48391 | 2.83589 | 25432 ft | 367 kts | 187° |
| 2026-05-04 17:52 | 42.45862 | 2.83292 | 25032 ft | 363 kts | 188° |
| 2026-05-04 17:52 | 42.43380 | 2.82777 | 24638 ft | 360 kts | 193° |
| 2026-05-04 17:53 | 42.40904 | 2.82163 | 24249 ft | 361 kts | 193° |
| 2026-05-04 17:53 | 42.38438 | 2.81555 | 23861 ft | 360 kts | 193° |
| 2026-05-04 17:53 | 42.35982 | 2.80951 | 23454 ft | 357 kts | 193° |
| 2026-05-04 17:53 | 42.33549 | 2.80355 | 23033 ft | 353 kts | 193° |
| 2026-05-04 17:54 | 42.31141 | 2.79762 | 22649 ft | 351 kts | 193° |
| 2026-05-04 17:54 | 42.28740 | 2.79171 | 22267 ft | 349 kts | 193° |
| 2026-05-04 17:54 | 42.26354 | 2.78583 | 21886 ft | 348 kts | 193° |
| 2026-05-04 17:54 | 42.23982 | 2.78001 | 21509 ft | 346 kts | 193° |
| 2026-05-04 17:55 | 42.21622 | 2.77424 | 21124 ft | 344 kts | 193° |
| 2026-05-04 17:55 | 42.19270 | 2.76851 | 20749 ft | 342 kts | 193° |
| 2026-05-04 17:55 | 42.16932 | 2.76281 | 20371 ft | 341 kts | 193° |
| 2026-05-04 17:55 | 42.14667 | 2.75428 | 19999 ft | 335 kts | 204° |
| 2026-05-04 17:56 | 42.12639 | 2.73939 | 19640 ft | 331 kts | 216° |
| 2026-05-04 17:56 | 42.10919 | 2.71878 | 19278 ft | 331 kts | 227° |
| 2026-05-04 17:56 | 42.09405 | 2.69554 | 18918 ft | 329 kts | 228° |
| 2026-05-04 17:56 | 42.07893 | 2.67247 | 18559 ft | 328 kts | 227° |
| 2026-05-04 17:57 | 42.06383 | 2.64949 | 18199 ft | 328 kts | 227° |
| 2026-05-04 17:57 | 42.04869 | 2.62647 | 17804 ft | 327 kts | 227° |
| 2026-05-04 17:57 | 42.03370 | 2.60369 | 17455 ft | 325 kts | 227° |
| 2026-05-04 17:57 | 42.01872 | 2.58097 | 17088 ft | 323 kts | 227° |
| 2026-05-04 17:58 | 42.00383 | 2.55841 | 16753 ft | 322 kts | 227° |
| 2026-05-04 17:58 | 41.98895 | 2.53591 | 16388 ft | 321 kts | 227° |
| 2026-05-04 17:58 | 41.97419 | 2.51357 | 16045 ft | 319 kts | 227° |
| 2026-05-04 17:58 | 41.95950 | 2.49132 | 15687 ft | 317 kts | 227° |
| 2026-05-04 17:59 | 41.94491 | 2.46919 | 15351 ft | 313 kts | 227° |
| 2026-05-04 17:59 | 41.93056 | 2.44750 | 15013 ft | 310 kts | 227° |
| 2026-05-04 17:59 | 41.90217 | 2.40467 | 14344 ft | 308 kts | 227° |
| 2026-05-04 18:00 | 41.88793 | 2.38322 | 14008 ft | 306 kts | 227° |
| 2026-05-04 18:00 | 41.87356 | 2.36217 | 13701 ft | 305 kts | 222° |
| 2026-05-04 18:00 | 41.85584 | 2.34671 | 13437 ft | 306 kts | 203° |
| 2026-05-04 18:00 | 41.83513 | 2.34073 | 13177 ft | 309 kts | 187° |
| 2026-05-04 18:01 | 41.81372 | 2.33851 | 12918 ft | 308 kts | 187° |
| 2026-05-04 18:01 | 41.79242 | 2.33650 | 12656 ft | 307 kts | 187° |
| 2026-05-04 18:01 | 41.77112 | 2.33456 | 12391 ft | 306 kts | 186° |
| 2026-05-04 18:02 | 41.72874 | 2.33075 | 11872 ft | 304 kts | 187° |
| 2026-05-04 18:02 | 41.70761 | 2.32879 | 11618 ft | 304 kts | 187° |
| 2026-05-04 18:02 | 41.68657 | 2.32679 | 11367 ft | 302 kts | 187° |
| 2026-05-04 18:02 | 41.66568 | 2.32477 | 11119 ft | 301 kts | 187° |
| 2026-05-04 18:03 | 41.64486 | 2.32280 | 10879 ft | 300 kts | 187° |
| 2026-05-04 18:03 | 41.62402 | 2.32084 | 10627 ft | 299 kts | 187° |
| 2026-05-04 18:03 | 41.60325 | 2.31887 | 10384 ft | 298 kts | 187° |
| 2026-05-04 18:03 | 41.58257 | 2.31692 | 10143 ft | 297 kts | 187° |
| 2026-05-04 18:04 | 41.56201 | 2.31498 | 9900 ft | 296 kts | 187° |
| 2026-05-04 18:04 | 41.54185 | 2.31316 | 9762 ft | 286 kts | 185° |
| 2026-05-04 18:04 | 41.50492 | 2.32880 | 9489 ft | 288 kts | 146° |
| 2026-05-04 18:05 | 41.49173 | 2.34920 | 9360 ft | 296 kts | 124° |
| 2026-05-04 18:05 | 41.48490 | 2.37540 | 9230 ft | 305 kts | 100° |
| 2026-05-04 18:05 | 41.48574 | 2.40380 | 9097 ft | 309 kts | 82° |
| 2026-05-04 18:05 | 41.49207 | 2.43119 | 8978 ft | 311 kts | 65° |
| 2026-05-04 18:06 | 41.51230 | 2.48234 | 8717 ft | 311 kts | 62° |
| 2026-05-04 18:06 | 41.52261 | 2.50767 | 8591 ft | 310 kts | 62° |
| 2026-05-04 18:06 | 41.53113 | 2.53359 | 8458 ft | 301 kts | 78° |
| 2026-05-04 18:07 | 41.53274 | 2.56055 | 8341 ft | 286 kts | 100° |
| 2026-05-04 18:07 | 41.52758 | 2.58537 | 8203 ft | 271 kts | 121° |
| 2026-05-04 18:07 | 41.51716 | 2.60538 | 8079 ft | 255 kts | 140° |
| 2026-05-04 18:07 | 41.50351 | 2.61919 | 7956 ft | 241 kts | 158° |
| 2026-05-04 18:08 | 41.48828 | 2.62677 | 7829 ft | 229 kts | 174° |
| 2026-05-04 18:08 | 41.47249 | 2.62832 | 7717 ft | 234 kts | 188° |
| 2026-05-04 18:08 | 41.45593 | 2.62348 | 7591 ft | 253 kts | 204° |
| 2026-05-04 18:08 | 41.44059 | 2.61165 | 7464 ft | 257 kts | 221° |
| 2026-05-04 18:09 | 41.42146 | 2.57229 | 7210 ft | 259 kts | 254° |
| 2026-05-04 18:09 | 41.41489 | 2.53282 | 6159 ft | 265 kts | 256° |
| 2026-05-04 18:10 | 41.41102 | 2.50879 | 5441 ft | 266 kts | 256° |
| 2026-05-04 18:10 | 41.40713 | 2.48461 | 4742 ft | 268 kts | 256° |
| 2026-05-04 18:10 | 41.40322 | 2.46037 | 4169 ft | 264 kts | 255° |
| 2026-05-04 18:10 | 41.39945 | 2.43689 | 4004 ft | 254 kts | 255° |
| 2026-05-04 18:11 | 41.39582 | 2.41440 | 3921 ft | 243 kts | 255° |
| 2026-05-04 18:11 | 41.39234 | 2.39293 | 3857 ft | 232 kts | 255° |
| 2026-05-04 18:11 | 41.38900 | 2.37244 | 3810 ft | 220 kts | 255° |
| 2026-05-04 18:11 | 41.38578 | 2.35276 | 3753 ft | 212 kts | 255° |
| 2026-05-04 18:12 | 41.38251 | 2.33413 | 3639 ft | 205 kts | 251° |
| 2026-05-04 18:12 | 41.37781 | 2.31645 | 3423 ft | 201 kts | 245° |
| 2026-05-04 18:12 | 41.37223 | 2.29918 | 3168 ft | 200 kts | 244° |
| 2026-05-04 18:12 | 41.36664 | 2.28258 | 2913 ft | 199 kts | 245° |
| 2026-05-04 18:13 | 41.36097 | 2.26589 | 2645 ft | 198 kts | 245° |
| 2026-05-04 18:13 | 41.35533 | 2.24928 | 2381 ft | 196 kts | 245° |
| 2026-05-04 18:13 | 41.34409 | 2.21626 | 1859 ft | 193 kts | 245° |
| 2026-05-04 18:14 | 41.33867 | 2.20034 | 1627 ft | 187 kts | 245° |
| 2026-05-04 18:14 | 41.33348 | 2.18510 | 1356 ft | 174 kts | 245° |
| 2026-05-04 18:14 | 41.32866 | 2.17095 | 1126 ft | 160 kts | 245° |
| 2026-05-04 18:15 | 41.32008 | 2.14574 | 756 ft | 141 kts | 245° |
| 2026-05-04 18:15 | 41.31212 | 2.12257 | 353 ft | 138 kts | 245° |
| 2026-05-04 18:15 | 41.30818 | 2.11092 | 179 ft | 137 kts | 245° |
| 2026-05-04 18:16 | 41.30431 | 2.09949 | 31 ft | 137 kts | 244° |
| 2026-05-04 18:16 | 41.30095 | 2.08976 | 18 ft | 96 kts | 245° |
| 2026-05-04 18:16 | 41.29898 | 2.08410 | 23 ft | 28 kts | 242° |
| 2026-05-04 18:17 | 41.29740 | 2.08224 | 18 ft | 2 kts | 212° |
| 2026-05-04 18:17 | 41.29732 | 2.08218 | 19 ft | 0 kts | 212° |
| 2026-05-04 18:17 | 41.29710 | 2.08200 | 17 ft | 6 kts | 210° |
| 2026-05-04 18:18 | 41.29666 | 2.08202 | 16 ft | 8 kts | 156° |
| 2026-05-04 18:18 | 41.29606 | 2.08234 | 17 ft | 12 kts | 160° |
| 2026-05-04 18:18 | 41.29522 | 2.08275 | 16 ft | 14 kts | 160° |
| 2026-05-04 18:18 | 41.29428 | 2.08321 | 19 ft | 15 kts | 160° |